sensor_id;sensor_type;location;lat;lon;timestamp;temperature;humidity
25512;DHT22;13414;44.534;18.700;2022-08-21T00:00:13;19.20;99.90
25512;DHT22;13414;44.534;18.700;2022-08-21T00:02:46;19.20;99.90
25512;DHT22;13414;44.534;18.700;2022-08-21T00:05:15;19.10;99.90
25512;DHT22;13414;44.534;18.700;2022-08-21T00:07:42;19.10;99.90
25512;DHT22;13414;44.534;18.700;2022-08-21T00:10:10;19.10;99.90
25512;DHT22;13414;44.534;18.700;2022-08-21T00:12:37;19.10;99.90
25512;DHT22;13414;44.534;18.700;2022-08-21T00:15:07;19.00;99.90
25512;DHT22;13414;44.534;18.700;2022-08-21T00:17:35;19.10;99.90
25512;DHT22;13414;44.534;18.700;2022-08-21T00:20:04;19.10;99.90
25512;DHT22;13414;44.534;18.700;2022-08-21T00:22:33;19.10;99.90
25512;DHT22;13414;44.534;18.700;2022-08-21T00:25:00;19.10;99.90
25512;DHT22;13414;44.534;18.700;2022-08-21T00:27:28;19.10;99.90
25512;DHT22;13414;44.534;18.700;2022-08-21T00:29:56;19.10;99.90
25512;DHT22;13414;44.534;18.700;2022-08-21T00:32:24;19.00;99.90
25512;DHT22;13414;44.534;18.700;2022-08-21T00:34:53;19.00;99.90
25512;DHT22;13414;44.534;18.700;2022-08-21T00:37:20;18.90;99.90
25512;DHT22;13414;44.534;18.700;2022-08-21T00:39:49;18.90;99.90
25512;DHT22;13414;44.534;18.700;2022-08-21T00:42:17;18.80;99.90
25512;DHT22;13414;44.534;18.700;2022-08-21T00:44:47;18.90;99.90
25512;DHT22;13414;44.534;18.700;2022-08-21T00:47:15;18.80;99.90
25512;DHT22;13414;44.534;18.700;2022-08-21T00:49:43;18.80;99.90
25512;DHT22;13414;44.534;18.700;2022-08-21T00:52:13;18.80;99.90
25512;DHT22;13414;44.534;18.700;2022-08-21T00:54:42;18.80;99.90
25512;DHT22;13414;44.534;18.700;2022-08-21T00:57:15;18.80;99.90
25512;DHT22;13414;44.534;18.700;2022-08-21T00:59:45;18.80;99.90
25512;DHT22;13414;44.534;18.700;2022-08-21T01:02:13;18.90;99.90
25512;DHT22;13414;44.534;18.700;2022-08-21T01:04:40;18.80;99.90
25512;DHT22;13414;44.534;18.700;2022-08-21T01:07:08;18.80;99.90
25512;DHT22;13414;44.534;18.700;2022-08-21T01:09:36;18.80;99.90
25512;DHT22;13414;44.534;18.700;2022-08-21T01:12:04;18.80;99.90
25512;DHT22;13414;44.534;18.700;2022-08-21T01:14:33;18.70;99.90
25512;DHT22;13414;44.534;18.700;2022-08-21T01:17:01;18.80;99.90
25512;DHT22;13414;44.534;18.700;2022-08-21T01:19:29;18.80;99.90
25512;DHT22;13414;44.534;18.700;2022-08-21T01:21:58;18.80;99.90
25512;DHT22;13414;44.534;18.700;2022-08-21T01:24:26;18.80;99.90
25512;DHT22;13414;44.534;18.700;2022-08-21T01:26:54;18.90;99.90
25512;DHT22;13414;44.534;18.700;2022-08-21T01:29:29;18.90;99.90
25512;DHT22;13414;44.534;18.700;2022-08-21T01:31:58;18.80;99.90
25512;DHT22;13414;44.534;18.700;2022-08-21T01:34:26;18.80;99.90
25512;DHT22;13414;44.534;18.700;2022-08-21T01:36:53;18.80;99.90
25512;DHT22;13414;44.534;18.700;2022-08-21T01:39:22;18.80;99.90
25512;DHT22;13414;44.534;18.700;2022-08-21T01:41:50;18.80;99.90
25512;DHT22;13414;44.534;18.700;2022-08-21T01:44:21;18.80;99.90
25512;DHT22;13414;44.534;18.700;2022-08-21T01:46:48;18.80;99.90
25512;DHT22;13414;44.534;18.700;2022-08-21T01:49:16;18.80;99.90
25512;DHT22;13414;44.534;18.700;2022-08-21T01:51:44;18.80;99.90
25512;DHT22;13414;44.534;18.700;2022-08-21T01:54:11;18.80;99.90
25512;DHT22;13414;44.534;18.700;2022-08-21T01:56:43;18.80;99.90
25512;DHT22;13414;44.534;18.700;2022-08-21T01:59:11;18.80;99.90
25512;DHT22;13414;44.534;18.700;2022-08-21T02:01:38;18.80;99.90
25512;DHT22;13414;44.534;18.700;2022-08-21T02:04:07;18.80;99.90
25512;DHT22;13414;44.534;18.700;2022-08-21T02:06:35;18.80;99.90
25512;DHT22;13414;44.534;18.700;2022-08-21T02:09:03;18.70;99.90
25512;DHT22;13414;44.534;18.700;2022-08-21T02:11:31;18.80;99.90
25512;DHT22;13414;44.534;18.700;2022-08-21T02:14:00;18.80;99.90
25512;DHT22;13414;44.534;18.700;2022-08-21T02:16:28;18.70;99.90
25512;DHT22;13414;44.534;18.700;2022-08-21T02:18:58;18.70;99.90
25512;DHT22;13414;44.534;18.700;2022-08-21T02:21:26;18.70;99.90
25512;DHT22;13414;44.534;18.700;2022-08-21T02:23:54;18.70;99.90
25512;DHT22;13414;44.534;18.700;2022-08-21T02:26:21;18.70;99.90
25512;DHT22;13414;44.534;18.700;2022-08-21T02:28:48;18.70;99.90
25512;DHT22;13414;44.534;18.700;2022-08-21T02:31:17;18.70;99.90
25512;DHT22;13414;44.534;18.700;2022-08-21T02:33:44;18.70;99.90
25512;DHT22;13414;44.534;18.700;2022-08-21T02:36:12;18.70;99.90
25512;DHT22;13414;44.534;18.700;2022-08-21T02:38:41;18.70;99.90
25512;DHT22;13414;44.534;18.700;2022-08-21T02:41:10;18.70;99.90
25512;DHT22;13414;44.534;18.700;2022-08-21T02:43:38;18.70;99.90
25512;DHT22;13414;44.534;18.700;2022-08-21T02:46:06;18.70;99.90
25512;DHT22;13414;44.534;18.700;2022-08-21T02:48:36;18.70;99.90
25512;DHT22;13414;44.534;18.700;2022-08-21T02:51:06;18.70;99.90
25512;DHT22;13414;44.534;18.700;2022-08-21T02:53:34;18.70;99.90
25512;DHT22;13414;44.534;18.700;2022-08-21T02:56:05;18.70;99.90
25512;DHT22;13414;44.534;18.700;2022-08-21T02:58:35;18.70;99.90
25512;DHT22;13414;44.534;18.700;2022-08-21T03:01:04;18.70;99.90
25512;DHT22;13414;44.534;18.700;2022-08-21T03:03:38;18.70;99.90
25512;DHT22;13414;44.534;18.700;2022-08-21T03:06:07;18.70;99.90
25512;DHT22;13414;44.534;18.700;2022-08-21T03:08:35;18.70;99.90
25512;DHT22;13414;44.534;18.700;2022-08-21T03:11:03;18.70;99.90
25512;DHT22;13414;44.534;18.700;2022-08-21T03:13:30;18.70;99.90
25512;DHT22;13414;44.534;18.700;2022-08-21T03:15:58;18.80;99.90
25512;DHT22;13414;44.534;18.700;2022-08-21T03:18:25;18.70;99.90
25512;DHT22;13414;44.534;18.700;2022-08-21T03:20:54;18.70;99.90
25512;DHT22;13414;44.534;18.700;2022-08-21T03:23:21;18.70;99.90
25512;DHT22;13414;44.534;18.700;2022-08-21T03:25:49;18.80;99.90
25512;DHT22;13414;44.534;18.700;2022-08-21T03:28:20;18.80;99.90
25512;DHT22;13414;44.534;18.700;2022-08-21T03:30:49;18.80;99.90
25512;DHT22;13414;44.534;18.700;2022-08-21T03:33:17;18.80;99.90
25512;DHT22;13414;44.534;18.700;2022-08-21T03:35:48;18.70;99.90
25512;DHT22;13414;44.534;18.700;2022-08-21T03:38:20;18.70;99.90
25512;DHT22;13414;44.534;18.700;2022-08-21T03:40:47;18.80;99.90
25512;DHT22;13414;44.534;18.700;2022-08-21T03:43:14;18.80;99.90
25512;DHT22;13414;44.534;18.700;2022-08-21T03:45:42;18.80;99.90
25512;DHT22;13414;44.534;18.700;2022-08-21T03:48:09;18.80;99.90
25512;DHT22;13414;44.534;18.700;2022-08-21T03:50:41;18.80;99.90
25512;DHT22;13414;44.534;18.700;2022-08-21T03:53:09;18.80;99.90
25512;DHT22;13414;44.534;18.700;2022-08-21T03:55:38;18.80;99.90
25512;DHT22;13414;44.534;18.700;2022-08-21T03:58:06;18.80;99.90
25512;DHT22;13414;44.534;18.700;2022-08-21T04:00:33;18.80;99.90
25512;DHT22;13414;44.534;18.700;2022-08-21T04:03:01;18.80;99.90
25512;DHT22;13414;44.534;18.700;2022-08-21T04:05:28;18.80;99.90
25512;DHT22;13414;44.534;18.700;2022-08-21T04:07:57;18.80;99.90
25512;DHT22;13414;44.534;18.700;2022-08-21T04:10:26;18.70;99.90
25512;DHT22;13414;44.534;18.700;2022-08-21T04:12:55;18.80;99.90
25512;DHT22;13414;44.534;18.700;2022-08-21T04:15:24;18.80;99.90
25512;DHT22;13414;44.534;18.700;2022-08-21T04:17:52;18.70;99.90
25512;DHT22;13414;44.534;18.700;2022-08-21T04:20:21;18.80;99.90
25512;DHT22;13414;44.534;18.700;2022-08-21T04:22:49;18.70;99.90
25512;DHT22;13414;44.534;18.700;2022-08-21T04:25:19;18.70;99.90
25512;DHT22;13414;44.534;18.700;2022-08-21T04:27:47;18.70;99.90
25512;DHT22;13414;44.534;18.700;2022-08-21T04:30:16;18.70;99.90
25512;DHT22;13414;44.534;18.700;2022-08-21T04:32:44;18.80;99.90
25512;DHT22;13414;44.534;18.700;2022-08-21T04:35:13;18.70;99.90
25512;DHT22;13414;44.534;18.700;2022-08-21T04:37:41;18.70;99.90
25512;DHT22;13414;44.534;18.700;2022-08-21T04:40:10;18.70;99.90
25512;DHT22;13414;44.534;18.700;2022-08-21T04:42:42;18.70;99.90
25512;DHT22;13414;44.534;18.700;2022-08-21T04:45:19;18.80;99.90
25512;DHT22;13414;44.534;18.700;2022-08-21T04:47:50;18.80;99.90
25512;DHT22;13414;44.534;18.700;2022-08-21T04:50:18;18.80;99.90
25512;DHT22;13414;44.534;18.700;2022-08-21T04:53:03;18.80;99.90
25512;DHT22;13414;44.534;18.700;2022-08-21T04:55:31;18.80;99.90
25512;DHT22;13414;44.534;18.700;2022-08-21T04:57:59;18.80;99.90
25512;DHT22;13414;44.534;18.700;2022-08-21T05:00:28;18.80;99.90
25512;DHT22;13414;44.534;18.700;2022-08-21T05:02:56;18.80;99.90
25512;DHT22;13414;44.534;18.700;2022-08-21T05:05:25;18.90;99.90
25512;DHT22;13414;44.534;18.700;2022-08-21T05:07:53;18.90;99.90
25512;DHT22;13414;44.534;18.700;2022-08-21T05:10:20;18.90;99.90
25512;DHT22;13414;44.534;18.700;2022-08-21T05:12:48;18.90;99.90
25512;DHT22;13414;44.534;18.700;2022-08-21T05:15:16;18.90;99.90
25512;DHT22;13414;44.534;18.700;2022-08-21T05:17:44;18.90;99.90
25512;DHT22;13414;44.534;18.700;2022-08-21T05:20:13;18.80;99.90
25512;DHT22;13414;44.534;18.700;2022-08-21T05:22:40;18.80;99.90
25512;DHT22;13414;44.534;18.700;2022-08-21T05:25:08;18.70;99.90
25512;DHT22;13414;44.534;18.700;2022-08-21T05:27:36;18.70;99.90
25512;DHT22;13414;44.534;18.700;2022-08-21T05:30:05;18.70;99.90
25512;DHT22;13414;44.534;18.700;2022-08-21T05:32:34;18.70;99.90
25512;DHT22;13414;44.534;18.700;2022-08-21T05:35:04;18.70;99.90
25512;DHT22;13414;44.534;18.700;2022-08-21T05:37:32;18.80;99.90
25512;DHT22;13414;44.534;18.700;2022-08-21T05:39:59;18.80;99.90
25512;DHT22;13414;44.534;18.700;2022-08-21T05:42:27;18.80;99.90
25512;DHT22;13414;44.534;18.700;2022-08-21T05:44:55;18.80;99.90
25512;DHT22;13414;44.534;18.700;2022-08-21T05:47:22;18.80;99.90
25512;DHT22;13414;44.534;18.700;2022-08-21T05:49:49;18.80;99.90
25512;DHT22;13414;44.534;18.700;2022-08-21T05:52:20;18.80;99.90
25512;DHT22;13414;44.534;18.700;2022-08-21T05:54:47;18.80;99.90
25512;DHT22;13414;44.534;18.700;2022-08-21T05:57:15;18.70;99.90
25512;DHT22;13414;44.534;18.700;2022-08-21T05:59:42;18.80;99.90
25512;DHT22;13414;44.534;18.700;2022-08-21T06:02:10;18.70;99.90
25512;DHT22;13414;44.534;18.700;2022-08-21T06:04:37;18.60;99.90
25512;DHT22;13414;44.534;18.700;2022-08-21T06:07:05;18.50;99.90
25512;DHT22;13414;44.534;18.700;2022-08-21T06:09:35;18.50;99.90
25512;DHT22;13414;44.534;18.700;2022-08-21T06:12:04;18.60;99.90
25512;DHT22;13414;44.534;18.700;2022-08-21T06:14:32;18.60;99.90
25512;DHT22;13414;44.534;18.700;2022-08-21T06:17:02;18.60;99.90
25512;DHT22;13414;44.534;18.700;2022-08-21T06:19:30;18.60;99.90
25512;DHT22;13414;44.534;18.700;2022-08-21T06:21:57;18.60;99.90
25512;DHT22;13414;44.534;18.700;2022-08-21T06:24:25;18.60;99.90
25512;DHT22;13414;44.534;18.700;2022-08-21T06:26:54;18.70;99.90
25512;DHT22;13414;44.534;18.700;2022-08-21T06:29:22;18.70;99.90
25512;DHT22;13414;44.534;18.700;2022-08-21T06:31:50;18.70;99.90
25512;DHT22;13414;44.534;18.700;2022-08-21T06:34:18;18.70;99.90
25512;DHT22;13414;44.534;18.700;2022-08-21T06:36:45;18.70;99.90
25512;DHT22;13414;44.534;18.700;2022-08-21T06:39:13;18.70;99.90
25512;DHT22;13414;44.534;18.700;2022-08-21T06:41:40;18.70;99.90
25512;DHT22;13414;44.534;18.700;2022-08-21T06:44:09;18.70;99.90
25512;DHT22;13414;44.534;18.700;2022-08-21T06:46:36;18.70;99.90
25512;DHT22;13414;44.534;18.700;2022-08-21T06:49:04;18.70;99.90
25512;DHT22;13414;44.534;18.700;2022-08-21T06:51:31;18.70;99.90
25512;DHT22;13414;44.534;18.700;2022-08-21T06:53:58;18.50;99.90
25512;DHT22;13414;44.534;18.700;2022-08-21T06:56:26;18.50;99.90
25512;DHT22;13414;44.534;18.700;2022-08-21T06:58:53;18.50;99.90
25512;DHT22;13414;44.534;18.700;2022-08-21T07:01:24;18.50;99.90
25512;DHT22;13414;44.534;18.700;2022-08-21T07:03:52;18.50;99.90
25512;DHT22;13414;44.534;18.700;2022-08-21T07:06:20;18.50;99.90
25512;DHT22;13414;44.534;18.700;2022-08-21T07:08:47;18.40;99.90
25512;DHT22;13414;44.534;18.700;2022-08-21T07:11:18;18.40;99.90
25512;DHT22;13414;44.534;18.700;2022-08-21T07:13:46;18.50;99.90
25512;DHT22;13414;44.534;18.700;2022-08-21T07:16:14;18.50;99.90
25512;DHT22;13414;44.534;18.700;2022-08-21T07:18:43;18.50;99.90
25512;DHT22;13414;44.534;18.700;2022-08-21T07:21:10;18.50;99.90
25512;DHT22;13414;44.534;18.700;2022-08-21T07:23:40;18.50;99.90
25512;DHT22;13414;44.534;18.700;2022-08-21T07:26:08;18.40;99.90
25512;DHT22;13414;44.534;18.700;2022-08-21T07:28:36;18.40;99.90
25512;DHT22;13414;44.534;18.700;2022-08-21T07:31:04;18.40;99.90
25512;DHT22;13414;44.534;18.700;2022-08-21T07:33:33;18.40;99.90
25512;DHT22;13414;44.534;18.700;2022-08-21T07:36:03;18.40;99.90
25512;DHT22;13414;44.534;18.700;2022-08-21T07:38:31;18.40;99.90
25512;DHT22;13414;44.534;18.700;2022-08-21T07:41:00;18.40;99.90
25512;DHT22;13414;44.534;18.700;2022-08-21T07:43:28;18.40;99.90
25512;DHT22;13414;44.534;18.700;2022-08-21T07:45:55;18.30;99.90
25512;DHT22;13414;44.534;18.700;2022-08-21T07:48:23;18.30;99.90
25512;DHT22;13414;44.534;18.700;2022-08-21T07:50:51;18.40;99.90
25512;DHT22;13414;44.534;18.700;2022-08-21T07:53:19;18.40;99.90
25512;DHT22;13414;44.534;18.700;2022-08-21T07:55:47;18.30;99.90
25512;DHT22;13414;44.534;18.700;2022-08-21T07:58:14;18.30;99.90
25512;DHT22;13414;44.534;18.700;2022-08-21T08:00:41;18.30;99.90
25512;DHT22;13414;44.534;18.700;2022-08-21T08:03:09;18.30;99.90
25512;DHT22;13414;44.534;18.700;2022-08-21T08:05:36;18.20;99.90
25512;DHT22;13414;44.534;18.700;2022-08-21T08:08:04;18.20;99.90
25512;DHT22;13414;44.534;18.700;2022-08-21T08:10:33;18.20;99.90
25512;DHT22;13414;44.534;18.700;2022-08-21T08:13:01;18.20;99.90
25512;DHT22;13414;44.534;18.700;2022-08-21T08:15:28;18.10;99.90
25512;DHT22;13414;44.534;18.700;2022-08-21T08:17:56;18.10;99.90
25512;DHT22;13414;44.534;18.700;2022-08-21T08:20:24;18.20;99.90
25512;DHT22;13414;44.534;18.700;2022-08-21T08:22:53;18.20;99.90
25512;DHT22;13414;44.534;18.700;2022-08-21T08:25:21;18.20;99.90
25512;DHT22;13414;44.534;18.700;2022-08-21T08:27:50;18.30;99.90
25512;DHT22;13414;44.534;18.700;2022-08-21T08:30:19;18.30;99.90
25512;DHT22;13414;44.534;18.700;2022-08-21T08:32:47;18.20;99.90
25512;DHT22;13414;44.534;18.700;2022-08-21T08:35:16;18.20;99.90
25512;DHT22;13414;44.534;18.700;2022-08-21T08:37:43;18.10;99.90
25512;DHT22;13414;44.534;18.700;2022-08-21T08:40:14;18.20;99.90
25512;DHT22;13414;44.534;18.700;2022-08-21T08:42:46;18.20;99.90
25512;DHT22;13414;44.534;18.700;2022-08-21T08:45:19;18.20;99.90
25512;DHT22;13414;44.534;18.700;2022-08-21T08:47:51;18.30;99.90
25512;DHT22;13414;44.534;18.700;2022-08-21T08:50:27;18.40;99.90
25512;DHT22;13414;44.534;18.700;2022-08-21T08:52:58;18.40;99.90
25512;DHT22;13414;44.534;18.700;2022-08-21T08:55:32;18.40;99.90
25512;DHT22;13414;44.534;18.700;2022-08-21T08:58:01;18.50;99.90
25512;DHT22;13414;44.534;18.700;2022-08-21T09:00:31;18.60;99.90
25512;DHT22;13414;44.534;18.700;2022-08-21T09:03:01;18.60;99.90
25512;DHT22;13414;44.534;18.700;2022-08-21T09:05:30;18.80;99.90
25512;DHT22;13414;44.534;18.700;2022-08-21T09:08:20;18.70;99.90
25512;DHT22;13414;44.534;18.700;2022-08-21T09:10:53;18.80;99.90
25512;DHT22;13414;44.534;18.700;2022-08-21T09:13:32;18.80;99.90
25512;DHT22;13414;44.534;18.700;2022-08-21T09:16:08;18.80;99.90
25512;DHT22;13414;44.534;18.700;2022-08-21T09:18:45;18.90;99.90
25512;DHT22;13414;44.534;18.700;2022-08-21T09:21:19;18.90;99.90
25512;DHT22;13414;44.534;18.700;2022-08-21T09:23:54;18.90;99.90
25512;DHT22;13414;44.534;18.700;2022-08-21T09:26:24;18.90;99.90
25512;DHT22;13414;44.534;18.700;2022-08-21T09:28:54;18.90;99.90
25512;DHT22;13414;44.534;18.700;2022-08-21T09:31:26;18.90;99.90
25512;DHT22;13414;44.534;18.700;2022-08-21T09:34:01;19.00;99.90
25512;DHT22;13414;44.534;18.700;2022-08-21T09:36:37;19.10;99.90
25512;DHT22;13414;44.534;18.700;2022-08-21T09:39:05;19.10;99.90
25512;DHT22;13414;44.534;18.700;2022-08-21T09:41:34;19.00;99.90
25512;DHT22;13414;44.534;18.700;2022-08-21T09:44:03;19.10;99.90
25512;DHT22;13414;44.534;18.700;2022-08-21T09:46:32;19.10;99.90
25512;DHT22;13414;44.534;18.700;2022-08-21T09:49:03;19.20;99.90
25512;DHT22;13414;44.534;18.700;2022-08-21T09:51:32;19.20;99.90
25512;DHT22;13414;44.534;18.700;2022-08-21T09:54:12;19.20;99.90
25512;DHT22;13414;44.534;18.700;2022-08-21T09:56:53;19.20;99.90
25512;DHT22;13414;44.534;18.700;2022-08-21T09:59:39;19.20;99.90
25512;DHT22;13414;44.534;18.700;2022-08-21T10:02:24;19.20;99.90
25512;DHT22;13414;44.534;18.700;2022-08-21T10:04:53;19.10;99.90
25512;DHT22;13414;44.534;18.700;2022-08-21T10:07:25;19.10;99.90
25512;DHT22;13414;44.534;18.700;2022-08-21T10:10:01;19.00;99.90
25512;DHT22;13414;44.534;18.700;2022-08-21T10:12:36;19.00;99.90
25512;DHT22;13414;44.534;18.700;2022-08-21T10:15:13;19.00;99.90
25512;DHT22;13414;44.534;18.700;2022-08-21T10:17:49;19.00;99.90
25512;DHT22;13414;44.534;18.700;2022-08-21T10:20:22;19.10;99.90
25512;DHT22;13414;44.534;18.700;2022-08-21T10:23:00;19.10;99.90
25512;DHT22;13414;44.534;18.700;2022-08-21T10:25:32;19.30;99.90
25512;DHT22;13414;44.534;18.700;2022-08-21T10:28:08;19.30;99.90
25512;DHT22;13414;44.534;18.700;2022-08-21T10:30:44;19.30;99.90
25512;DHT22;13414;44.534;18.700;2022-08-21T10:33:23;19.30;99.90
25512;DHT22;13414;44.534;18.700;2022-08-21T10:35:56;19.30;99.90
25512;DHT22;13414;44.534;18.700;2022-08-21T10:38:55;19.30;99.90
25512;DHT22;13414;44.534;18.700;2022-08-21T10:41:31;19.30;99.90
25512;DHT22;13414;44.534;18.700;2022-08-21T10:46:56;19.30;99.90
25512;DHT22;13414;44.534;18.700;2022-08-21T10:49:34;19.30;99.90
25512;DHT22;13414;44.534;18.700;2022-08-21T10:52:23;19.40;99.90
25512;DHT22;13414;44.534;18.700;2022-08-21T10:54:57;19.40;99.90
25512;DHT22;13414;44.534;18.700;2022-08-21T10:57:35;19.50;99.90
25512;DHT22;13414;44.534;18.700;2022-08-21T11:00:08;19.40;99.90
25512;DHT22;13414;44.534;18.700;2022-08-21T11:02:40;19.40;99.90
25512;DHT22;13414;44.534;18.700;2022-08-21T11:05:16;19.50;99.90
25512;DHT22;13414;44.534;18.700;2022-08-21T11:07:50;19.50;99.90
25512;DHT22;13414;44.534;18.700;2022-08-21T11:10:23;19.50;99.90
25512;DHT22;13414;44.534;18.700;2022-08-21T11:12:54;19.50;99.90
25512;DHT22;13414;44.534;18.700;2022-08-21T11:15:41;19.50;99.90
25512;DHT22;13414;44.534;18.700;2022-08-21T11:18:20;19.70;99.90
25512;DHT22;13414;44.534;18.700;2022-08-21T11:20:56;19.70;99.90
25512;DHT22;13414;44.534;18.700;2022-08-21T11:23:33;19.70;99.90
25512;DHT22;13414;44.534;18.700;2022-08-21T11:26:08;19.70;99.90
25512;DHT22;13414;44.534;18.700;2022-08-21T11:28:42;19.80;99.90
25512;DHT22;13414;44.534;18.700;2022-08-21T11:31:20;19.80;99.90
25512;DHT22;13414;44.534;18.700;2022-08-21T11:34:02;20.00;99.90
25512;DHT22;13414;44.534;18.700;2022-08-21T11:36:36;20.00;99.90
25512;DHT22;13414;44.534;18.700;2022-08-21T11:39:12;20.10;99.90
25512;DHT22;13414;44.534;18.700;2022-08-21T11:41:48;20.10;99.90
25512;DHT22;13414;44.534;18.700;2022-08-21T11:44:27;20.10;99.90
25512;DHT22;13414;44.534;18.700;2022-08-21T11:47:02;20.20;99.90
25512;DHT22;13414;44.534;18.700;2022-08-21T11:49:46;20.10;99.90
25512;DHT22;13414;44.534;18.700;2022-08-21T11:52:22;20.10;99.90
25512;DHT22;13414;44.534;18.700;2022-08-21T11:54:55;20.00;99.90
25512;DHT22;13414;44.534;18.700;2022-08-21T11:57:27;20.00;99.90
25512;DHT22;13414;44.534;18.700;2022-08-21T12:00:01;20.00;99.90
25512;DHT22;13414;44.534;18.700;2022-08-21T12:02:42;20.00;99.90
25512;DHT22;13414;44.534;18.700;2022-08-21T12:05:23;20.00;99.90
25512;DHT22;13414;44.534;18.700;2022-08-21T12:08:06;20.00;99.90
25512;DHT22;13414;44.534;18.700;2022-08-21T12:10:35;20.00;99.90
25512;DHT22;13414;44.534;18.700;2022-08-21T12:13:09;20.10;99.90
25512;DHT22;13414;44.534;18.700;2022-08-21T12:15:39;20.10;99.90
25512;DHT22;13414;44.534;18.700;2022-08-21T12:18:20;20.10;99.90
25512;DHT22;13414;44.534;18.700;2022-08-21T12:21:00;20.10;99.90
25512;DHT22;13414;44.534;18.700;2022-08-21T12:23:33;20.10;99.90
25512;DHT22;13414;44.534;18.700;2022-08-21T12:26:09;20.10;99.90
25512;DHT22;13414;44.534;18.700;2022-08-21T12:28:37;20.10;99.90
25512;DHT22;13414;44.534;18.700;2022-08-21T12:31:17;20.00;99.90
25512;DHT22;13414;44.534;18.700;2022-08-21T12:33:52;20.00;99.90
25512;DHT22;13414;44.534;18.700;2022-08-21T12:36:23;20.10;99.90
25512;DHT22;13414;44.534;18.700;2022-08-21T12:38:56;20.10;99.90
25512;DHT22;13414;44.534;18.700;2022-08-21T12:41:27;20.10;99.90
25512;DHT22;13414;44.534;18.700;2022-08-21T12:43:59;20.20;99.90
25512;DHT22;13414;44.534;18.700;2022-08-21T12:46:32;20.30;99.90
25512;DHT22;13414;44.534;18.700;2022-08-21T12:49:06;20.40;99.90
25512;DHT22;13414;44.534;18.700;2022-08-21T12:51:47;20.40;99.90
25512;DHT22;13414;44.534;18.700;2022-08-21T12:54:25;20.40;99.90
25512;DHT22;13414;44.534;18.700;2022-08-21T12:56:57;20.50;99.90
25512;DHT22;13414;44.534;18.700;2022-08-21T12:59:25;20.50;99.90
25512;DHT22;13414;44.534;18.700;2022-08-21T13:01:53;20.60;99.90
25512;DHT22;13414;44.534;18.700;2022-08-21T13:04:25;20.70;99.90
25512;DHT22;13414;44.534;18.700;2022-08-21T13:06:55;20.70;99.90
25512;DHT22;13414;44.534;18.700;2022-08-21T13:09:30;20.70;99.90
25512;DHT22;13414;44.534;18.700;2022-08-21T13:11:58;20.80;99.90
25512;DHT22;13414;44.534;18.700;2022-08-21T13:14:30;20.80;99.90
25512;DHT22;13414;44.534;18.700;2022-08-21T13:17:00;20.80;99.90
25512;DHT22;13414;44.534;18.700;2022-08-21T13:19:28;20.80;99.90
25512;DHT22;13414;44.534;18.700;2022-08-21T13:21:56;20.90;99.90
25512;DHT22;13414;44.534;18.700;2022-08-21T13:24:25;21.00;99.90
25512;DHT22;13414;44.534;18.700;2022-08-21T13:26:55;21.00;99.90
25512;DHT22;13414;44.534;18.700;2022-08-21T13:29:27;21.10;99.90
25512;DHT22;13414;44.534;18.700;2022-08-21T13:31:56;21.10;99.90
25512;DHT22;13414;44.534;18.700;2022-08-21T13:34:28;21.20;99.90
25512;DHT22;13414;44.534;18.700;2022-08-21T13:37:00;21.30;99.90
25512;DHT22;13414;44.534;18.700;2022-08-21T13:39:27;21.40;99.90
25512;DHT22;13414;44.534;18.700;2022-08-21T13:41:59;21.40;99.90
25512;DHT22;13414;44.534;18.700;2022-08-21T13:44:34;21.30;99.90
25512;DHT22;13414;44.534;18.700;2022-08-21T13:47:04;21.30;99.90
25512;DHT22;13414;44.534;18.700;2022-08-21T13:49:34;21.30;99.90
25512;DHT22;13414;44.534;18.700;2022-08-21T13:52:03;21.20;99.90
25512;DHT22;13414;44.534;18.700;2022-08-21T13:54:35;21.30;99.90
25512;DHT22;13414;44.534;18.700;2022-08-21T13:57:16;21.20;99.90
25512;DHT22;13414;44.534;18.700;2022-08-21T13:59:43;21.10;99.90
25512;DHT22;13414;44.534;18.700;2022-08-21T14:02:14;21.20;99.90
25512;DHT22;13414;44.534;18.700;2022-08-21T14:04:55;21.30;99.90
25512;DHT22;13414;44.534;18.700;2022-08-21T14:07:28;21.30;99.90
25512;DHT22;13414;44.534;18.700;2022-08-21T14:10:00;21.20;99.90
25512;DHT22;13414;44.534;18.700;2022-08-21T14:12:34;21.10;99.90
25512;DHT22;13414;44.534;18.700;2022-08-21T14:15:06;21.20;99.90
25512;DHT22;13414;44.534;18.700;2022-08-21T14:17:35;21.30;99.90
25512;DHT22;13414;44.534;18.700;2022-08-21T14:20:05;21.50;99.90
25512;DHT22;13414;44.534;18.700;2022-08-21T14:22:37;21.60;99.90
25512;DHT22;13414;44.534;18.700;2022-08-21T14:25:07;21.60;99.90
25512;DHT22;13414;44.534;18.700;2022-08-21T14:27:41;21.70;99.90
25512;DHT22;13414;44.534;18.700;2022-08-21T14:30:12;21.90;99.90
25512;DHT22;13414;44.534;18.700;2022-08-21T14:32:41;22.00;99.90
25512;DHT22;13414;44.534;18.700;2022-08-21T14:35:08;22.10;99.90
25512;DHT22;13414;44.534;18.700;2022-08-21T14:37:37;22.10;99.90
25512;DHT22;13414;44.534;18.700;2022-08-21T14:40:04;22.10;99.90
25512;DHT22;13414;44.534;18.700;2022-08-21T14:42:32;22.00;99.90
25512;DHT22;13414;44.534;18.700;2022-08-21T14:45:07;21.90;99.90
25512;DHT22;13414;44.534;18.700;2022-08-21T14:47:35;21.80;99.90
25512;DHT22;13414;44.534;18.700;2022-08-21T14:50:03;21.60;99.90
25512;DHT22;13414;44.534;18.700;2022-08-21T14:52:31;21.50;99.90
25512;DHT22;13414;44.534;18.700;2022-08-21T14:54:58;21.40;99.90
25512;DHT22;13414;44.534;18.700;2022-08-21T14:57:27;21.10;99.90
25512;DHT22;13414;44.534;18.700;2022-08-21T14:59:56;21.00;99.90
25512;DHT22;13414;44.534;18.700;2022-08-21T15:02:26;20.90;99.90
25512;DHT22;13414;44.534;18.700;2022-08-21T15:04:54;20.80;99.90
25512;DHT22;13414;44.534;18.700;2022-08-21T15:07:21;20.80;99.90
25512;DHT22;13414;44.534;18.700;2022-08-21T15:09:48;20.80;99.90
25512;DHT22;13414;44.534;18.700;2022-08-21T15:12:15;20.80;99.90
25512;DHT22;13414;44.534;18.700;2022-08-21T15:14:43;20.90;99.90
25512;DHT22;13414;44.534;18.700;2022-08-21T15:17:11;21.00;99.90
25512;DHT22;13414;44.534;18.700;2022-08-21T15:19:40;20.90;99.90
25512;DHT22;13414;44.534;18.700;2022-08-21T15:22:07;20.90;99.90
25512;DHT22;13414;44.534;18.700;2022-08-21T15:24:35;20.90;99.90
25512;DHT22;13414;44.534;18.700;2022-08-21T15:27:03;20.90;99.90
25512;DHT22;13414;44.534;18.700;2022-08-21T15:29:33;20.80;99.90
25512;DHT22;13414;44.534;18.700;2022-08-21T15:32:16;20.90;99.90
25512;DHT22;13414;44.534;18.700;2022-08-21T15:34:45;20.90;99.90
25512;DHT22;13414;44.534;18.700;2022-08-21T15:37:12;20.80;99.90